Time;durP1;ratioP1;P1;durP2;ratioP2;P2;SDS_P1;SDS_P2;PMS_P1;PMS_P2;Temp;Humidity;BMP_temperature;BMP_pressure;BME280_temperature;BME280_humidity;BME280_pressure;Samples;Min_cycle;Max_cycle;Signal;HPM_P1;HPM_P2
2021/06/28 00:00:29;;;;;;;;;8.50;6.00;;;;;21.95;66.83;100998.38;4994319;28;45358;-82
2021/06/28 00:02:55;;;;;;;;;5.00;5.00;;;;;21.90;66.79;101009.78;4994597;28;45355;-81
2021/06/28 00:05:21;;;;;;;;;5.00;4.25;;;;;21.89;67.04;101008.91;4995725;27;45339;-81
2021/06/28 00:07:48;;;;;;;;;7.00;5.50;;;;;21.89;66.83;101010.66;4994698;27;46435;-82
2021/06/28 00:10:17;;;;;;;;;5.50;4.00;;;;;21.87;66.70;101004.50;4994128;28;45858;-81
2021/06/28 00:12:43;;;;;;;;;6.00;4.25;;;;;21.86;67.22;101005.38;4994469;27;45186;-82
2021/06/28 00:15:13;;;;;;;;;6.75;6.75;;;;;21.86;67.01;101002.75;4994643;27;45484;-82
2021/06/28 00:17:40;;;;;;;;;5.75;5.75;;;;;21.85;66.79;101012.44;4976146;28;45664;-81
2021/06/28 00:20:08;;;;;;;;;4.50;4.50;;;;;21.84;67.17;101009.78;4995064;27;45477;-81
2021/06/28 00:22:35;;;;;;;;;5.00;5.00;;;;;21.83;66.88;101008.00;4994571;28;45462;-81
2021/06/28 00:25:00;;;;;;;;;4.00;4.00;;;;;21.79;67.41;100996.59;4995183;28;45512;-82
2021/06/28 00:27:26;;;;;;;;;4.00;4.00;;;;;21.78;67.01;100994.81;4994591;28;46383;-81
2021/06/28 00:29:52;;;;;;;;;5.00;3.75;;;;;21.81;66.73;101000.09;4994008;28;45490;-81
2021/06/28 00:32:19;;;;;;;;;4.00;4.00;;;;;21.80;66.32;100990.44;4995147;27;45263;-82
2021/06/28 00:34:45;;;;;;;;;3.00;3.00;;;;;21.77;66.86;100970.25;4994644;28;45474;-82
2021/06/28 00:37:11;;;;;;;;;3.00;3.00;;;;;21.80;65.73;100966.72;4995042;27;45332;-81
2021/06/28 00:39:37;;;;;;;;;3.00;3.00;;;;;21.79;65.69;100955.31;4995421;28;45265;-82
2021/06/28 00:42:03;;;;;;;;;5.00;4.00;;;;;21.79;66.04;100946.50;4996238;28;45591;-81
2021/06/28 00:44:29;;;;;;;;;4.00;2.25;;;;;21.78;65.62;100945.66;4996489;28;45516;-82
2021/06/28 00:46:54;;;;;;;;;3.50;2.75;;;;;21.76;64.98;100933.31;4994052;28;46139;-81
2021/06/28 00:49:20;;;;;;;;;3.50;3.50;;;;;21.75;65.44;100924.56;4994076;27;45319;-82
2021/06/28 00:51:46;;;;;;;;;4.25;2.75;;;;;21.73;65.42;100917.53;4977127;28;45512;-82
2021/06/28 00:54:12;;;;;;;;;2.50;2.50;;;;;21.73;65.50;100926.31;4995449;27;45655;-82
2021/06/28 00:56:38;;;;;;;;;2.50;2.50;;;;;21.74;65.49;100937.75;4994255;27;46326;-82
2021/06/28 00:59:04;;;;;;;;;4.00;4.00;;;;;21.75;65.30;100928.97;4994948;28;45781;-81
2021/06/28 01:01:31;;;;;;;;;2.25;2.25;;;;;21.69;65.47;100914.03;4993931;28;45451;-81
2021/06/28 01:03:56;;;;;;;;;4.50;3.25;;;;;21.71;65.71;100919.28;4977672;28;45480;-82
2021/06/28 01:06:22;;;;;;;;;3.00;3.00;;;;;21.72;64.95;100921.03;4993800;28;46180;-81
2021/06/28 01:08:48;;;;;;;;;3.25;3.25;;;;;21.75;65.26;100923.69;4994205;28;45283;-81
2021/06/28 01:11:14;;;;;;;;;3.25;3.00;;;;;21.70;65.73;100917.53;4996302;27;45403;-82
2021/06/28 01:13:40;;;;;;;;;4.00;4.00;;;;;21.72;65.49;100907.88;4990020;28;45556;-81
2021/06/28 01:16:08;;;;;;;;;3.50;3.50;;;;;21.75;65.55;100894.69;4993642;28;46458;-81
2021/06/28 01:18:34;;;;;;;;;6.25;3.75;;;;;21.76;65.83;100885.88;4993013;28;45722;-81
2021/06/28 01:21:01;;;;;;;;;3.25;3.25;;;;;21.77;65.91;100877.09;4993427;28;45493;-81
2021/06/28 01:23:29;;;;;;;;;3.00;3.00;;;;;21.78;65.76;100870.97;4994615;27;45267;-82
2021/06/28 01:25:58;;;;;;;;;3.00;3.00;;;;;21.78;65.83;100910.50;4993813;28;46412;-81
2021/06/28 01:28:24;;;;;;;;;3.00;3.00;;;;;21.72;65.53;100935.09;4995492;28;45396;-80
2021/06/28 01:30:51;;;;;;;;;3.50;3.50;;;;;21.67;65.96;100941.22;4995195;28;45528;-81
2021/06/28 01:33:17;;;;;;;;;2.00;2.00;;;;;21.64;65.47;100945.66;4995163;27;45261;-81
2021/06/28 01:35:43;;;;;;;;;5.25;4.00;;;;;21.58;66.06;100955.25;4993824;28;45446;-81
2021/06/28 01:38:09;;;;;;;;;3.00;3.00;;;;;21.53;66.03;100949.09;4993914;28;45333;-80
2021/06/28 01:40:38;;;;;;;;;4.00;2.00;;;;;21.45;66.12;100933.25;4995053;28;45468;-83
2021/06/28 01:43:04;;;;;;;;;3.25;3.25;;;;;21.45;65.82;100941.16;4995854;28;45409;-80
2021/06/28 01:45:31;;;;;;;;;3.25;3.00;;;;;21.41;66.25;100953.44;4993899;28;45701;-82
2021/06/28 01:47:59;;;;;;;;;3.00;3.00;;;;;21.37;65.84;100948.19;4993982;27;45761;-80
2021/06/28 01:50:28;;;;;;;;;2.25;2.25;;;;;21.31;65.74;100963.09;4995875;28;45351;-82
2021/06/28 01:52:55;;;;;;;;;2.50;2.00;;;;;21.26;65.39;100958.69;4994239;27;45467;-81
2021/06/28 01:55:21;;;;;;;;;2.00;2.00;;;;;21.19;65.28;100940.22;4993239;28;46244;-82
2021/06/28 01:57:51;;;;;;;;;3.00;3.00;;;;;21.17;65.63;100939.34;4994043;27;45754;-82
2021/06/28 02:00:23;;;;;;;;;2.25;2.25;;;;;21.15;65.82;100942.84;4976281;28;45390;-82
2021/06/28 02:02:58;;;;;;;;;2.75;2.00;;;;;21.16;65.49;100948.16;4976625;28;45469;-82
2021/06/28 02:05:26;;;;;;;;;2.00;2.00;;;;;21.14;65.06;100955.16;4994157;28;46596;-82
2021/06/28 02:07:51;;;;;;;;;1.00;1.00;;;;;21.11;65.41;100949.88;4993668;27;45992;-82
2021/06/28 02:10:17;;;;;;;;;1.00;1.00;;;;;21.13;65.36;100947.22;4994076;28;45374;-82
2021/06/28 02:12:43;;;;;;;;;1.75;1.75;;;;;21.12;64.73;100951.63;4994081;28;45330;-83
2021/06/28 02:15:23;;;;;;;;;3.25;2.00;;;;;21.08;64.66;100954.25;4995117;28;45422;-82
2021/06/28 02:17:48;;;;;;;;;2.50;2.00;;;;;21.05;64.64;100936.69;4996270;28;45777;-81
2021/06/28 02:20:14;;;;;;;;;2.25;1.25;;;;;21.01;64.64;100914.72;4993596;28;45518;-81
2021/06/28 02:22:42;;;;;;;;;2.00;2.00;;;;;21.02;64.30;100915.63;4992098;28;45572;-81
2021/06/28 02:25:10;;;;;;;;;1.75;1.00;;;;;20.98;64.75;100901.56;4995063;28;46431;-81
2021/06/28 02:27:37;;;;;;;;;3.25;1.00;;;;;21.03;64.41;100907.72;4996881;28;45410;-81
2021/06/28 02:30:06;;;;;;;;;1.00;1.00;;;;;21.03;64.47;100905.09;5005433;28;45296;-80
2021/06/28 02:32:32;;;;;;;;;1.00;1.00;;;;;21.03;64.65;100905.09;4995715;28;45501;-81
2021/06/28 02:34:58;;;;;;;;;2.50;1.75;;;;;21.07;64.44;100905.97;4994060;27;45391;-80
2021/06/28 02:37:23;;;;;;;;;1.00;1.00;;;;;21.07;64.30;100902.47;4993761;28;45420;-80
2021/06/28 02:39:49;;;;;;;;;2.00;1.00;;;;;21.09;64.12;100912.13;4993832;28;45364;-81
2021/06/28 02:42:15;;;;;;;;;1.00;1.00;;;;;21.11;64.71;100920.91;4994204;28;45244;-81
2021/06/28 02:44:40;;;;;;;;;1.00;1.00;;;;;21.14;64.38;100941.09;4993262;27;46294;-80
2021/06/28 02:47:06;;;;;;;;;2.00;2.00;;;;;21.15;64.08;100945.50;4993736;28;45430;-81
2021/06/28 02:49:31;;;;;;;;;2.00;2.00;;;;;21.11;64.10;100957.78;4993982;28;45327;-80
2021/06/28 02:51:57;;;;;;;;;1.00;1.00;;;;;21.04;64.61;100966.53;4994271;28;45240;-80
2021/06/28 02:54:23;;;;;;;;;1.00;1.00;;;;;21.02;64.96;100979.66;4993608;28;45408;-81
2021/06/28 02:56:49;;;;;;;;;1.00;1.00;;;;;20.99;65.26;100989.31;4992949;28;45766;-80
2021/06/28 02:59:14;;;;;;;;;1.00;1.00;;;;;20.92;64.85;100982.25;4993224;27;45466;-80
2021/06/28 03:01:40;;;;;;;;;2.50;1.00;;;;;20.82;65.38;100976.97;4976496;28;45984;-80
2021/06/28 03:04:06;;;;;;;;;1.00;1.00;;;;;20.75;65.79;100955.84;4993919;28;45512;-81
2021/06/28 03:06:31;;;;;;;;;1.00;1.00;;;;;20.68;65.88;100939.13;4993633;28;45385;-81
2021/06/28 03:08:57;;;;;;;;;1.00;1.00;;;;;20.69;65.63;100957.53;4993593;28;45422;-81
2021/06/28 03:11:23;;;;;;;;;2.00;2.00;;;;;20.67;65.08;100947.88;4993565;28;45334;-80
2021/06/28 03:13:50;;;;;;;;;3.00;2.00;;;;;20.68;65.15;100963.66;4992913;28;45430;-82
2021/06/28 03:16:16;;;;;;;;;2.00;2.00;;;;;20.65;65.51;100937.38;4993128;28;45758;-81
2021/06/28 03:18:42;;;;;;;;;1.00;1.00;;;;;20.66;65.87;100935.59;4992639;28;45342;-81
2021/06/28 03:21:10;;;;;;;;;1.25;1.25;;;;;20.68;65.38;100936.50;4995190;28;45240;-80
2021/06/28 03:23:38;;;;;;;;;2.00;1.00;;;;;20.66;65.54;100936.50;4988228;28;45813;-80
2021/06/28 03:26:04;;;;;;;;;3.00;3.00;;;;;20.70;65.62;100932.13;5006436;28;45467;-81
2021/06/28 03:28:30;;;;;;;;;1.00;1.00;;;;;20.74;65.68;100931.28;4992869;28;45497;-81
2021/06/28 03:30:57;;;;;;;;;3.00;2.00;;;;;20.78;65.79;100919.03;4992991;27;45589;-81
2021/06/28 03:33:23;;;;;;;;;2.00;1.00;;;;;20.77;65.66;100923.41;4992893;28;45379;-81
2021/06/28 03:35:48;;;;;;;;;2.00;2.00;;;;;20.76;65.59;100926.03;4993549;28;45329;-82
2021/06/28 03:38:14;;;;;;;;;1.75;1.75;;;;;20.73;65.18;100933.00;4992859;27;45313;-81
2021/06/28 03:40:40;;;;;;;;;2.25;2.00;;;;;20.71;65.09;100926.00;4992972;28;45544;-81
2021/06/28 03:43:08;;;;;;;;;1.00;1.00;;;;;20.68;65.43;100918.09;4974862;28;45399;-81
2021/06/28 03:45:36;;;;;;;;;2.00;2.00;;;;;20.66;64.93;100932.97;4992565;28;45316;-80
2021/06/28 03:48:02;;;;;;;;;2.00;2.00;;;;;20.65;65.28;100924.22;4993391;28;45243;-80
2021/06/28 03:50:28;;;;;;;;;2.00;2.00;;;;;20.61;65.33;100914.53;4995789;28;45362;-80
2021/06/28 03:52:53;;;;;;;;;2.75;2.75;;;;;20.61;65.11;100914.53;4975161;28;47702;-81
2021/06/28 03:55:19;;;;;;;;;1.25;1.25;;;;;20.62;64.92;100918.94;4992408;27;45403;-81
2021/06/28 03:57:45;;;;;;;;;2.75;2.00;;;;;20.62;65.50;100913.66;4974200;28;45382;-80
2021/06/28 04:00:23;;;;;;;;;1.00;1.00;;;;;20.61;65.18;100930.31;4992689;28;45633;-81
2021/06/28 04:02:49;;;;;;;;;4.25;2.75;;;;;20.57;64.90;100929.44;4991969;28;45460;-81
2021/06/28 04:05:21;;;;;;;;;2.00;1.00;;;;;20.56;65.31;100922.41;4992410;28;45372;-81
2021/06/28 04:07:48;;;;;;;;;2.00;2.00;;;;;20.56;65.01;100922.41;4992108;28;45396;-81
2021/06/28 04:10:20;;;;;;;;;2.00;2.00;;;;;20.57;65.92;100924.16;4992759;28;45319;-81
2021/06/28 04:12:47;;;;;;;;;3.25;3.00;;;;;20.60;65.02;100923.28;4991718;28;46667;-81
2021/06/28 04:15:14;;;;;;;;;2.00;2.00;;;;;20.62;64.95;100929.44;4973771;28;45508;-80
2021/06/28 04:17:42;;;;;;;;;3.00;2.25;;;;;20.61;64.54;100917.16;4974779;28;45411;-80
2021/06/28 04:20:10;;;;;;;;;1.25;1.25;;;;;20.62;64.73;100907.53;4977951;28;45440;-80
2021/06/28 04:22:37;;;;;;;;;3.50;2.00;;;;;20.60;65.11;100910.16;4982780;28;45493;-80
2021/06/28 04:25:05;;;;;;;;;2.00;2.00;;;;;20.62;64.59;100926.81;4977726;28;45386;-81
2021/06/28 04:27:31;;;;;;;;;1.50;1.50;;;;;20.60;64.64;100917.16;4995219;27;45237;-80
2021/06/28 04:29:57;;;;;;;;;1.00;1.00;;;;;20.61;65.27;100913.66;4996103;28;45149;-80
2021/06/28 04:32:23;;;;;;;;;1.00;1.00;;;;;20.61;65.26;100932.09;4977629;28;45359;-80
2021/06/28 04:34:49;;;;;;;;;1.50;1.00;;;;;20.59;65.16;100924.16;4997270;28;45445;-81
2021/06/28 04:37:14;;;;;;;;;2.00;2.00;;;;;20.63;65.41;100933.84;4998187;28;45333;-81
2021/06/28 04:39:41;;;;;;;;;3.00;2.00;;;;;20.65;64.67;100944.38;4995272;28;45478;-80
2021/06/28 04:42:07;;;;;;;;;1.00;1.00;;;;;20.68;65.30;100950.50;4977016;28;47516;-80
2021/06/28 04:44:33;;;;;;;;;2.25;1.50;;;;;20.67;64.47;100946.16;5013909;27;45308;-80
2021/06/28 04:46:59;;;;;;;;;2.50;1.75;;;;;20.68;64.41;100966.31;5010500;28;45328;-81
2021/06/28 04:49:25;;;;;;;;;3.00;3.00;;;;;20.66;64.86;100968.06;4978350;28;45510;-80
2021/06/28 04:51:51;;;;;;;;;3.00;3.00;;;;;20.62;64.56;100970.69;4977441;28;47007;-80
2021/06/28 04:54:16;;;;;;;;;3.00;1.50;;;;;20.63;64.59;100985.56;4977110;28;45423;-82
2021/06/28 04:56:42;;;;;;;;;3.00;2.50;;;;;20.60;64.65;100985.56;4977461;28;45316;-80
2021/06/28 04:59:08;;;;;;;;;2.50;2.50;;;;;20.58;64.11;100977.66;4995442;28;45259;-81
2021/06/28 05:01:34;;;;;;;;;2.00;2.00;;;;;20.55;64.32;100975.88;4994534;27;45315;-81
2021/06/28 05:03:59;;;;;;;;;2.75;2.75;;;;;20.54;64.84;100975.88;4995044;28;45386;-81
2021/06/28 05:06:25;;;;;;;;;5.00;2.25;;;;;20.54;64.40;100976.75;4994971;28;45358;-81
2021/06/28 05:08:50;;;;;;;;;2.25;2.25;;;;;20.59;64.22;100971.50;4995312;28;45355;-81
2021/06/28 05:11:16;;;;;;;;;1.00;1.00;;;;;20.64;64.76;100979.44;4995616;27;45603;-81
2021/06/28 05:13:42;;;;;;;;;1.25;1.25;;;;;20.62;64.96;100982.06;4994508;27;45857;-81
2021/06/28 05:16:07;;;;;;;;;2.00;2.00;;;;;20.63;65.04;100991.72;4997094;27;45342;-81
2021/06/28 05:18:33;;;;;;;;;2.75;1.00;;;;;20.66;65.21;100978.59;4993853;28;45575;-80
2021/06/28 05:20:59;;;;;;;;;3.50;2.00;;;;;20.66;65.36;100989.13;4994253;28;45362;-80
2021/06/28 05:23:24;;;;;;;;;1.00;1.00;;;;;20.65;65.40;100982.09;4993231;27;45476;-80
2021/06/28 05:25:50;;;;;;;;;2.00;2.00;;;;;20.61;64.65;100990.81;4993591;28;45223;-80
2021/06/28 05:28:16;;;;;;;;;2.00;2.00;;;;;20.56;64.56;100989.94;4990603;28;45260;-80
2021/06/28 05:30:42;;;;;;;;;2.00;1.50;;;;;20.55;64.54;100998.69;4992457;28;45402;-80
2021/06/28 05:33:07;;;;;;;;;1.00;1.00;;;;;20.56;64.72;100992.56;4993548;28;45357;-81
2021/06/28 05:35:34;;;;;;;;;3.75;2.75;;;;;20.56;65.25;101003.09;4993878;28;45482;-81
2021/06/28 05:38:00;;;;;;;;;1.00;1.00;;;;;20.57;64.97;101002.22;4994840;28;45509;-81
2021/06/28 05:40:26;;;;;;;;;2.00;2.00;;;;;20.59;64.34;100994.31;4994358;28;46227;-80
2021/06/28 05:42:51;;;;;;;;;2.25;2.25;;;;;20.57;64.78;100992.56;4993655;27;45435;-83
2021/06/28 05:45:17;;;;;;;;;1.00;1.00;;;;;20.57;64.61;100978.53;4994935;28;45425;-84
2021/06/28 05:47:43;;;;;;;;;2.00;2.00;;;;;20.59;64.52;100968.03;4976307;28;45693;-83
2021/06/28 05:50:14;;;;;;;;;2.50;2.50;;;;;20.57;65.21;100960.13;4977613;27;46596;-82
2021/06/28 05:52:40;;;;;;;;;2.00;2.00;;;;;20.56;65.38;100968.88;4994716;27;45561;-87
2021/06/28 05:55:06;;;;;;;;;3.00;2.00;;;;;20.61;64.73;100974.19;5016112;27;45394;-85
2021/06/28 05:57:32;;;;;;;;;2.50;2.00;;;;;20.60;64.58;100970.66;5042134;28;45363;-87
2021/06/28 05:59:58;;;;;;;;;1.50;1.25;;;;;20.57;65.00;100960.13;4976868;28;46265;-86
2021/06/28 06:02:24;;;;;;;;;2.00;2.00;;;;;20.62;64.66;100955.75;4995538;27;45419;-84
2021/06/28 06:04:50;;;;;;;;;1.50;1.50;;;;;20.61;65.09;100969.78;4995617;28;45425;-83
2021/06/28 06:07:16;;;;;;;;;2.00;2.00;;;;;20.61;65.54;100967.16;4979662;28;45643;-85
2021/06/28 06:09:45;;;;;;;;;2.25;2.00;;;;;20.55;64.46;100952.22;4999999;28;45454;-85
2021/06/28 06:12:11;;;;;;;;;2.75;2.75;;;;;20.57;64.76;100965.38;4978914;28;45685;-86
2021/06/28 06:14:37;;;;;;;;;4.75;2.00;;;;;20.55;64.84;100957.47;4994766;28;45482;-85
2021/06/28 06:17:03;;;;;;;;;4.00;2.75;;;;;20.53;64.97;100987.28;4976534;28;45620;-86
2021/06/28 06:19:29;;;;;;;;;3.00;2.25;;;;;20.61;64.68;100992.59;4994796;27;45425;-86
2021/06/28 06:21:59;;;;;;;;;7.00;3.00;;;;;20.61;64.67;100996.09;4994311;28;45900;-86
2021/06/28 06:24:28;;;;;;;;;3.00;3.00;;;;;20.63;64.05;100985.56;4978077;28;45485;-85
2021/06/28 06:26:56;;;;;;;;;3.00;2.75;;;;;20.50;64.29;100984.63;4977104;28;45477;-84
2021/06/28 06:29:23;;;;;;;;;10.50;8.75;;;;;20.61;64.73;101025.03;4977686;28;45637;-81
2021/06/28 06:31:49;;;;;;;;;5.00;4.00;;;;;20.59;64.55;101026.75;4993364;28;45634;-75
2021/06/28 06:34:14;;;;;;;;;33.25;28.25;;;;;20.54;64.34;101036.38;4993427;28;45296;-80
2021/06/28 06:36:40;;;;;;;;;13.25;11.75;;;;;20.52;64.56;101038.97;4993411;28;45620;-81
2021/06/28 06:39:06;;;;;;;;;6.50;6.50;;;;;20.51;64.40;101038.97;4992927;28;46086;-80
2021/06/28 06:41:32;;;;;;;;;5.25;3.00;;;;;20.53;65.18;101032.00;4995916;28;45364;-79
2021/06/28 06:43:57;;;;;;;;;4.00;2.50;;;;;20.57;65.17;101023.25;4994761;27;45552;-80
2021/06/28 06:46:23;;;;;;;;;2.25;2.25;;;;;20.62;64.46;101028.56;4994568;27;45520;-80
2021/06/28 06:48:49;;;;;;;;;8.25;7.00;;;;;20.66;64.35;101019.78;4994320;27;46312;-82
2021/06/28 06:51:17;;;;;;;;;4.00;4.00;;;;;20.64;64.35;101017.16;4990751;28;45469;-85
2021/06/28 06:53:43;;;;;;;;;2.50;2.50;;;;;20.67;64.57;101016.28;5015510;27;45530;-80
2021/06/28 06:56:09;;;;;;;;;60.00;45.25;;;;;20.67;64.18;101018.91;4995570;27;45375;-85
2021/06/28 06:58:35;;;;;;;;;14.25;13.25;;;;;20.70;64.17;101037.38;4991401;27;46872;-85
2021/06/28 07:01:01;;;;;;;;;6.00;5.00;;;;;20.72;63.84;101035.63;4994021;27;45914;-87
2021/06/28 07:03:26;;;;;;;;;4.00;3.00;;;;;20.71;63.74;101033.88;4974081;28;45398;-90
2021/06/28 07:05:52;;;;;;;;;4.75;4.00;;;;;20.76;64.07;101020.78;4975932;28;45629;-83
2021/06/28 07:08:18;;;;;;;;;2.25;2.25;;;;;20.84;64.02;101035.72;4993240;28;45449;-81
2021/06/28 07:10:44;;;;;;;;;4.00;3.00;;;;;20.92;63.45;101035.75;4993564;27;45564;-82
2021/06/28 07:13:10;;;;;;;;;4.00;3.00;;;;;20.96;63.19;101045.44;4993495;28;45462;-81
2021/06/28 07:15:36;;;;;;;;;14.25;14.00;;;;;20.99;63.94;101029.69;4993736;28;45552;-87
2021/06/28 07:18:03;;;;;;;;;17.75;16.25;;;;;21.02;63.50;101019.16;4993196;28;45457;-80
2021/06/28 07:20:28;;;;;;;;;3.00;3.00;;;;;21.10;62.88;101020.97;4974554;28;45812;-84
2021/06/28 07:22:54;;;;;;;;;3.25;3.25;;;;;21.11;63.13;101023.59;4974119;28;45465;-78
2021/06/28 07:25:22;;;;;;;;;3.25;3.25;;;;;21.17;63.11;101038.53;4991449;27;45594;-79
2021/06/28 07:27:48;;;;;;;;;4.50;4.50;;;;;21.18;62.74;101040.28;4990017;28;45510;-78
2021/06/28 07:30:17;;;;;;;;;4.75;4.00;;;;;21.21;62.71;101042.94;4992179;28;45709;-80
2021/06/28 07:32:43;;;;;;;;;6.00;3.50;;;;;21.19;62.85;101027.13;4992641;28;45408;-79
2021/06/28 07:35:13;;;;;;;;;4.50;4.50;;;;;21.21;62.52;101028.88;5045387;27;45236;-80
2021/06/28 07:37:40;;;;;;;;;4.25;4.25;;;;;21.19;62.71;101031.53;5016381;27;45520;-85
2021/06/28 07:40:07;;;;;;;;;27.00;25.25;;;;;21.14;62.76;101035.88;4996696;27;45384;-79
2021/06/28 07:42:33;;;;;;;;;28.25;26.00;;;;;21.16;62.88;101047.31;4992459;28;45327;-83
2021/06/28 07:44:58;;;;;;;;;46.50;38.50;;;;;21.17;62.67;101051.69;4974990;28;45653;-81
2021/06/28 07:47:25;;;;;;;;;4.00;4.00;;;;;21.11;62.54;101049.91;4994347;28;45564;-87
2021/06/28 07:49:52;;;;;;;;;5.50;4.25;;;;;21.05;62.56;101054.25;4993846;28;45783;-80
2021/06/28 07:52:17;;;;;;;;;5.00;5.00;;;;;21.04;62.67;101048.13;4992240;28;45503;-80
2021/06/28 07:54:45;;;;;;;;;5.50;5.00;;;;;21.02;62.84;101058.63;4995133;27;45365;-86
2021/06/28 07:57:11;;;;;;;;;5.00;5.00;;;;;21.03;62.97;101059.53;4975819;28;46637;-78
2021/06/28 07:59:37;;;;;;;;;5.25;5.25;;;;;21.15;62.04;101058.69;4994077;28;45603;-79
2021/06/28 08:02:05;;;;;;;;;5.25;3.25;;;;;21.23;62.17;101066.66;4994998;27;45427;-78
2021/06/28 08:04:30;;;;;;;;;4.50;4.00;;;;;21.28;61.67;101057.91;4994048;27;46015;-80
2021/06/28 08:06:56;;;;;;;;;3.00;3.00;;;;;21.36;61.63;101057.03;4993256;28;45865;-80
2021/06/28 08:09:22;;;;;;;;;4.50;4.00;;;;;21.45;60.85;101057.97;4992622;27;45428;-80
2021/06/28 08:11:47;;;;;;;;;5.50;4.00;;;;;21.59;60.35;101062.44;4995273;27;45410;-81
2021/06/28 08:14:15;;;;;;;;;3.00;3.00;;;;;21.72;60.21;101055.44;4995473;28;45395;-82
2021/06/28 08:16:41;;;;;;;;;4.00;4.00;;;;;21.86;60.50;101061.63;4977107;28;46520;-81
2021/06/28 08:19:16;;;;;;;;;4.00;2.75;;;;;21.95;59.37;101055.47;5000302;28;45458;-88
2021/06/28 08:21:42;;;;;;;;;5.00;4.00;;;;;22.03;59.81;101059.00;5002303;28;45238;-89
2021/06/28 08:24:10;;;;;;;;;3.00;3.00;;;;;22.09;59.30;101048.47;5003048;28;45500;-88
2021/06/28 08:26:37;;;;;;;;;4.00;3.00;;;;;22.06;58.92;101043.19;4981268;28;47223;-86
2021/06/28 08:29:04;;;;;;;;;21.00;20.50;;;;;22.05;59.21;101046.69;5001380;28;45304;-87
2021/06/28 08:31:36;;;;;;;;;12.00;8.00;;;;;22.07;59.50;101055.50;4998455;28;45516;-87
2021/06/28 08:34:02;;;;;;;;;5.25;5.00;;;;;22.05;59.34;101051.09;4999116;27;45477;-88
2021/06/28 08:36:27;;;;;;;;;5.00;4.50;;;;;22.09;58.38;101053.75;4976515;28;47901;-90
2021/06/28 08:38:53;;;;;;;;;4.25;4.25;;;;;22.13;58.83;101056.41;4977488;28;45450;-89
2021/06/28 08:41:19;;;;;;;;;3.00;3.00;;;;;22.12;58.22;101055.50;4977744;28;45315;-87
2021/06/28 08:43:47;;;;;;;;;3.00;3.00;;;;;22.13;58.42;101051.13;4976304;28;45432;-89
2021/06/28 08:46:18;;;;;;;;;4.25;4.25;;;;;22.14;58.31;101053.75;4994972;27;46376;-81
2021/06/28 08:48:45;;;;;;;;;3.00;3.00;;;;;22.15;58.32;101058.16;4995096;28;45872;-87
2021/06/28 08:51:12;;;;;;;;;2.25;2.25;;;;;22.19;58.22;101056.38;4996110;28;45295;-88
2021/06/28 08:53:38;;;;;;;;;6.00;5.00;;;;;22.25;58.39;101062.53;4997499;28;45224;-87
2021/06/28 08:56:07;;;;;;;;;2.75;2.00;;;;;22.33;58.35;101059.03;4994959;27;45455;-88
2021/06/28 08:58:39;;;;;;;;;3.50;3.25;;;;;22.38;58.42;101052.88;4978151;28;45383;-90
2021/06/28 09:01:06;;;;;;;;;4.75;4.00;;;;;22.42;58.23;101049.38;4985360;28;45292;-92
2021/06/28 09:03:34;;;;;;;;;3.75;3.75;;;;;22.40;58.48;101058.16;4995812;28;45433;-85
2021/06/28 09:06:10;;;;;;;;;3.75;3.75;;;;;22.32;58.12;101055.53;4998953;28;45430;-92
2021/06/28 09:09:15;;;;;;;;;4.50;4.00;;;;;22.23;58.63;101059.03;5003324;28;45297;-91
2021/06/28 09:11:51;;;;;;;;;7.50;6.00;;;;;22.15;58.66;101055.50;5010202;28;45263;-86
2021/06/28 09:14:21;;;;;;;;;4.50;4.50;;;;;22.05;58.39;101048.47;5002752;28;45259;-91
2021/06/28 09:16:46;;;;;;;;;4.50;3.00;;;;;22.04;58.40;101046.72;5003696;28;46179;-92
2021/06/28 09:19:17;;;;;;;;;3.00;3.00;;;;;22.02;58.74;101048.47;5001726;28;45443;-88
2021/06/28 09:21:56;;;;;;;;;4.50;4.00;;;;;21.99;58.36;101051.97;4998225;28;45271;-90
2021/06/28 09:24:31;;;;;;;;;3.00;3.00;;;;;21.96;58.28;101054.59;5007698;28;45356;-91
2021/06/28 09:27:09;;;;;;;;;3.75;2.00;;;;;21.89;57.78;101069.53;5006283;27;45390;-90
2021/06/28 09:29:37;;;;;;;;;2.75;2.00;;;;;21.84;58.17;101060.75;5002457;28;45663;-87
2021/06/28 09:32:15;;;;;;;;;2.00;2.00;;;;;21.86;58.06;101064.28;4996751;27;45254;-86
2021/06/28 09:34:43;;;;;;;;;2.75;2.75;;;;;21.94;57.70;101061.63;4995370;28;45465;-85
2021/06/28 09:37:17;;;;;;;;;4.50;3.50;;;;;22.03;57.51;101061.63;4994445;28;45635;-85
2021/06/28 09:39:46;;;;;;;;;3.75;3.00;;;;;22.14;57.11;101053.75;4999841;28;45386;-85
2021/06/28 09:42:13;;;;;;;;;4.75;4.25;;;;;22.30;57.01;101057.28;4985342;28;45440;-90
2021/06/28 09:45:06;;;;;;;;;2.50;2.50;;;;;22.44;56.33;101066.97;4993467;28;45212;-86
2021/06/28 09:47:36;;;;;;;;;3.25;3.25;;;;;22.55;56.38;101068.72;4975992;28;47549;-84
2021/06/28 09:50:15;;;;;;;;;4.25;4.00;;;;;22.76;55.76;101076.63;4989723;28;45762;-85
2021/06/28 09:52:47;;;;;;;;;6.50;5.75;;;;;22.92;54.78;101080.97;4998546;27;45438;-91
2021/06/28 09:55:21;;;;;;;;;1.00;1.00;;;;;22.96;54.71;101072.19;5004221;27;45494;-91
2021/06/28 09:58:17;;;;;;;;;3.75;2.00;;;;;23.06;54.43;101080.09;5001842;28;46322;-91
2021/06/28 10:00:49;;;;;;;;;1.50;1.50;;;;;23.12;53.77;101074.75;5002632;28;45431;-88
2021/06/28 10:03:37;;;;;;;;;2.50;2.00;;;;;23.15;53.54;101069.47;4996503;28;45505;-88
2021/06/28 10:06:26;;;;;;;;;3.00;3.00;;;;;23.17;53.55;101076.50;4995913;28;45434;-84
2021/06/28 10:09:04;;;;;;;;;2.25;2.00;;;;;23.16;52.95;101084.44;5001363;28;45632;-83
2021/06/28 10:11:30;;;;;;;;;2.00;2.00;;;;;23.14;52.79;101080.94;5001629;28;45256;-83
2021/06/28 10:14:05;;;;;;;;;2.25;2.25;;;;;23.23;52.93;101088.84;4995028;27;45451;-83
2021/06/28 10:16:33;;;;;;;;;2.00;2.00;;;;;23.24;52.85;101081.81;4994574;28;45389;-82
2021/06/28 10:19:01;;;;;;;;;2.25;2.25;;;;;23.35;52.92;101080.03;4976804;28;47224;-84
2021/06/28 10:21:27;;;;;;;;;4.75;4.50;;;;;23.45;52.91;101084.38;4995172;28;45730;-84
2021/06/28 10:23:54;;;;;;;;;4.00;4.00;;;;;23.46;52.74;101075.56;4993902;28;45302;-84
2021/06/28 10:26:20;;;;;;;;;2.25;2.25;;;;;23.50;52.69;101077.28;4994275;28;45265;-84
2021/06/28 10:28:47;;;;;;;;;3.50;2.00;;;;;23.54;52.25;101087.84;4993259;28;46333;-86
2021/06/28 10:31:13;;;;;;;;;1.75;1.75;;;;;23.53;52.10;101072.88;4993709;28;45324;-84
2021/06/28 10:33:42;;;;;;;;;2.00;2.00;;;;;23.58;52.37;101074.63;4993121;27;45346;-85
2021/06/28 10:36:12;;;;;;;;;2.50;2.00;;;;;23.54;51.52;101082.56;4994743;28;45286;-86
2021/06/28 10:38:55;;;;;;;;;2.25;2.25;;;;;23.45;51.74;101079.09;4992974;27;46077;-85
2021/06/28 10:41:50;;;;;;;;;4.50;3.00;;;;;23.36;51.96;101081.78;4993956;28;45413;-85
2021/06/28 10:44:19;;;;;;;;;2.25;2.25;;;;;23.27;52.77;101079.19;4993009;28;45635;-85
2021/06/28 10:46:53;;;;;;;;;4.25;3.00;;;;;23.26;52.24;101073.00;4992552;27;45420;-89
2021/06/28 10:49:42;;;;;;;;;6.00;3.00;;;;;23.29;52.71;101080.91;5026436;27;46194;-84
2021/06/28 10:52:08;;;;;;;;;4.25;2.75;;;;;23.37;52.63;101066.78;4993044;28;45735;-90
2021/06/28 10:54:36;;;;;;;;;5.75;3.25;;;;;23.48;52.40;101064.97;4993488;28;45397;-86
2021/06/28 10:57:03;;;;;;;;;2.75;2.00;;;;;23.61;52.03;101063.16;4982722;28;45508;-85
2021/06/28 10:59:32;;;;;;;;;4.25;3.75;;;;;23.77;51.84;101063.94;4989698;28;46590;-84
2021/06/28 11:01:58;;;;;;;;;3.75;3.00;;;;;23.90;51.91;101056.81;5000769;28;45279;-86
2021/06/28 11:04:38;;;;;;;;;5.50;5.25;;;;;24.01;52.03;101051.47;4986548;28;46616;-86
2021/06/28 11:07:09;;;;;;;;;7.00;3.25;;;;;24.16;51.34;101053.13;4993109;28;45483;-81
2021/06/28 12:23:44;;;;;;;;;3.00;2.25;;;;;23.16;53.92;101042.19;5112734;27;45423;-84
2021/06/28 12:26:14;;;;;;;;;8.00;4.75;;;;;23.29;54.16;101041.28;5074732;27;45461;-84
2021/06/28 12:28:40;;;;;;;;;2.75;2.75;;;;;23.47;53.34;101047.38;5093635;27;45234;-85
2021/06/28 12:31:14;;;;;;;;;4.00;3.00;;;;;23.57;52.70;101035.00;5094884;27;45366;-84
2021/06/28 12:33:40;;;;;;;;;2.50;2.50;;;;;23.73;53.14;101041.06;5095127;27;45285;-86
2021/06/28 12:36:05;;;;;;;;;3.00;3.00;;;;;23.92;53.13;101039.16;5095189;27;45359;-86
2021/06/28 12:38:31;;;;;;;;;2.00;2.00;;;;;24.13;51.75;101040.81;5095308;27;45200;-86
2021/06/28 12:40:57;;;;;;;;;2.00;1.75;;;;;24.34;51.24;101041.53;5096702;27;45326;-87